sensor_id;sensor_type;location;lat;lon;timestamp;pressure;altitude;pressure_sealevel;temperature;humidity
39341;BME280;25059;52.132;21.062;2023-12-20T01:44:57;99492.25;;;5.46;100.00
39341;BME280;25059;52.132;21.062;2023-12-20T01:51:18;99491.84;;;5.32;100.00
39341;BME280;25059;52.132;21.062;2023-12-20T01:55:02;99476.25;;;5.31;100.00
39341;BME280;25059;52.132;21.062;2023-12-20T01:58:37;99487.94;;;5.45;100.00
39341;BME280;25059;52.132;21.062;2023-12-20T06:34:48;99390.31;;;5.29;100.00
39341;BME280;25059;52.132;21.062;2023-12-20T06:37:36;99381.78;;;5.24;100.00
39341;BME280;25059;52.132;21.062;2023-12-20T06:40:21;99394.63;;;5.30;100.00
39341;BME280;25059;52.132;21.062;2023-12-20T06:43:06;99371.38;;;5.24;100.00
39341;BME280;25059;52.132;21.062;2023-12-20T06:45:51;99377.28;;;5.29;100.00
39341;BME280;25059;52.132;21.062;2023-12-20T06:48:36;99392.06;;;5.29;100.00
39341;BME280;25059;52.132;21.062;2023-12-20T06:51:20;99376.53;;;5.26;100.00
39341;BME280;25059;52.132;21.062;2023-12-20T06:54:05;99369.81;;;5.18;100.00
39341;BME280;25059;52.132;21.062;2023-12-20T06:56:50;99391.66;;;5.41;100.00
39341;BME280;25059;52.132;21.062;2023-12-20T06:59:40;99393.31;;;5.43;100.00
39341;BME280;25059;52.132;21.062;2023-12-20T07:02:25;99368.88;;;5.21;100.00
39341;BME280;25059;52.132;21.062;2023-12-20T07:05:09;99382.28;;;5.35;100.00
39341;BME280;25059;52.132;21.062;2023-12-20T07:08:00;99372.81;;;5.33;100.00
39341;BME280;25059;52.132;21.062;2023-12-20T07:10:49;99386.19;;;5.48;100.00
39341;BME280;25059;52.132;21.062;2023-12-20T07:13:37;99388.69;;;5.51;100.00
39341;BME280;25059;52.132;21.062;2023-12-20T07:17:13;99398.31;;;5.49;100.00
39341;BME280;25059;52.132;21.062;2023-12-20T07:21:31;99399.88;;;5.55;100.00
39341;BME280;25059;52.132;21.062;2023-12-20T07:24:24;99391.28;;;5.51;100.00
39341;BME280;25059;52.132;21.062;2023-12-20T07:27:32;99388.03;;;5.45;100.00
39341;BME280;25059;52.132;21.062;2023-12-20T07:30:20;99385.94;;;5.56;100.00
39341;BME280;25059;52.132;21.062;2023-12-20T07:33:16;99371.44;;;5.47;100.00
39341;BME280;25059;52.132;21.062;2023-12-20T07:36:07;99392.00;;;5.57;100.00
39341;BME280;25059;52.132;21.062;2023-12-20T07:38:54;99395.75;;;5.48;100.00
39341;BME280;25059;52.132;21.062;2023-12-20T07:41:49;99324.28;;;5.04;100.00
39341;BME280;25059;52.132;21.062;2023-12-20T07:44:39;99398.16;;;5.54;100.00
39341;BME280;25059;52.132;21.062;2023-12-20T07:47:23;99358.13;;;5.30;100.00
39341;BME280;25059;52.132;21.062;2023-12-20T07:50:45;99397.38;;;5.52;100.00
39341;BME280;25059;52.132;21.062;2023-12-20T07:53:51;99391.44;;;5.47;100.00
39341;BME280;25059;52.132;21.062;2023-12-20T07:57:30;99388.78;;;5.48;100.00
39341;BME280;25059;52.132;21.062;2023-12-20T08:08:48;99401.66;;;5.53;100.00
39341;BME280;25059;52.132;21.062;2023-12-20T08:12:36;99398.09;;;5.56;100.00
39341;BME280;25059;52.132;21.062;2023-12-20T08:20:01;99336.94;;;5.14;100.00
39341;BME280;25059;52.132;21.062;2023-12-20T08:23:42;99390.44;;;5.51;100.00
39341;BME280;25059;52.132;21.062;2023-12-20T08:26:28;99354.31;;;5.40;100.00
39341;BME280;25059;52.132;21.062;2023-12-20T08:29:15;99391.28;;;5.51;100.00
39341;BME280;25059;52.132;21.062;2023-12-20T08:32:01;99390.22;;;5.57;100.00
39341;BME280;25059;52.132;21.062;2023-12-20T08:34:47;99337.25;;;5.32;100.00
39341;BME280;25059;52.132;21.062;2023-12-20T08:38:00;99360.31;;;5.42;100.00
39341;BME280;25059;52.132;21.062;2023-12-20T08:41:04;99358.72;;;5.38;100.00
39341;BME280;25059;52.132;21.062;2023-12-20T08:43:53;99367.28;;;5.42;100.00
39341;BME280;25059;52.132;21.062;2023-12-20T08:46:50;99397.91;;;5.62;100.00
39341;BME280;25059;52.132;21.062;2023-12-20T08:49:51;99393.28;;;5.70;100.00
39341;BME280;25059;52.132;21.062;2023-12-20T08:57:45;99370.56;;;5.73;100.00
39341;BME280;25059;52.132;21.062;2023-12-20T09:01:08;99289.00;;;5.20;100.00
39341;BME280;25059;52.132;21.062;2023-12-20T09:07:56;99358.19;;;5.78;100.00
39341;BME280;25059;52.132;21.062;2023-12-20T09:10:43;99362.50;;;5.79;100.00
39341;BME280;25059;52.132;21.062;2023-12-20T09:13:32;99350.06;;;5.63;100.00
39341;BME280;25059;52.132;21.062;2023-12-20T09:16:29;99361.97;;;5.70;100.00
39341;BME280;25059;52.132;21.062;2023-12-20T09:19:28;99369.00;;;5.68;100.00
39341;BME280;25059;52.132;21.062;2023-12-20T09:22:23;99364.84;;;5.62;100.00
39341;BME280;25059;52.132;21.062;2023-12-20T09:25:47;99310.31;;;5.31;100.00
39341;BME280;25059;52.132;21.062;2023-12-20T09:28:43;99351.03;;;5.60;100.00
39341;BME280;25059;52.132;21.062;2023-12-20T09:35:43;99339.78;;;5.58;100.00
39341;BME280;25059;52.132;21.062;2023-12-20T09:38:48;99295.28;;;5.39;100.00
39341;BME280;25059;52.132;21.062;2023-12-20T09:42:04;99303.53;;;5.52;100.00
39341;BME280;25059;52.132;21.062;2023-12-20T09:45:23;99341.34;;;5.64;100.00
39341;BME280;25059;52.132;21.062;2023-12-20T09:48:53;99333.47;;;5.65;100.00
39341;BME280;25059;52.132;21.062;2023-12-20T09:52:25;99333.34;;;5.68;100.00
39341;BME280;25059;52.132;21.062;2023-12-20T09:59:23;99312.56;;;5.67;100.00
39341;BME280;25059;52.132;21.062;2023-12-20T10:02:24;99267.50;;;5.38;100.00
39341;BME280;25059;52.132;21.062;2023-12-20T10:05:28;99322.03;;;5.69;100.00
39341;BME280;25059;52.132;21.062;2023-12-20T10:09:27;99327.63;;;5.59;100.00
39341;BME280;25059;52.132;21.062;2023-12-20T10:12:16;99325.22;;;5.53;100.00
39341;BME280;25059;52.132;21.062;2023-12-20T10:15:08;99313.31;;;5.45;100.00
39341;BME280;25059;52.132;21.062;2023-12-20T10:18:12;99301.34;;;5.40;100.00
39341;BME280;25059;52.132;21.062;2023-12-20T10:20:57;99258.69;;;5.17;100.00
39341;BME280;25059;52.132;21.062;2023-12-20T10:23:48;99307.94;;;5.50;100.00
39341;BME280;25059;52.132;21.062;2023-12-20T10:26:43;99292.34;;;5.48;100.00
39341;BME280;25059;52.132;21.062;2023-12-20T10:29:46;99317.81;;;5.65;100.00
39341;BME280;25059;52.132;21.062;2023-12-20T10:33:31;99309.88;;;5.68;100.00
39341;BME280;25059;52.132;21.062;2023-12-20T10:37:02;99310.78;;;5.67;100.00
39341;BME280;25059;52.132;21.062;2023-12-20T10:40:18;99311.31;;;5.77;100.00
39341;BME280;25059;52.132;21.062;2023-12-20T10:52:05;99284.16;;;5.59;100.00
39341;BME280;25059;52.132;21.062;2023-12-20T10:55:44;99296.91;;;5.67;100.00
39341;BME280;25059;52.132;21.062;2023-12-20T10:58:42;99297.13;;;5.61;100.00
39341;BME280;25059;52.132;21.062;2023-12-20T11:01:48;99288.81;;;5.74;100.00
39341;BME280;25059;52.132;21.062;2023-12-20T11:11:30;99189.53;;;5.09;100.00
39341;BME280;25059;52.132;21.062;2023-12-20T11:14:41;99275.16;;;5.68;100.00
39341;BME280;25059;52.132;21.062;2023-12-20T11:17:39;99260.19;;;5.73;100.00
39341;BME280;25059;52.132;21.062;2023-12-20T11:20:39;99214.59;;;5.36;100.00
39341;BME280;25059;52.132;21.062;2023-12-20T11:23:35;99249.28;;;5.62;100.00
39341;BME280;25059;52.132;21.062;2023-12-20T11:26:47;99258.31;;;5.76;100.00
39341;BME280;25059;52.132;21.062;2023-12-20T11:29:35;99220.72;;;5.59;100.00
39341;BME280;25059;52.132;21.062;2023-12-20T11:35:17;99248.97;;;5.71;100.00
39341;BME280;25059;52.132;21.062;2023-12-20T11:38:03;99190.75;;;5.24;100.00
39341;BME280;25059;52.132;21.062;2023-12-20T11:40:49;99232.69;;;5.88;100.00
39341;BME280;25059;52.132;21.062;2023-12-20T11:43:44;99238.00;;;5.61;100.00
39341;BME280;25059;52.132;21.062;2023-12-20T11:46:40;99212.16;;;5.78;100.00
39341;BME280;25059;52.132;21.062;2023-12-20T11:49:30;99232.56;;;5.67;100.00
39341;BME280;25059;52.132;21.062;2023-12-20T11:52:16;99223.34;;;5.82;100.00
39341;BME280;25059;52.132;21.062;2023-12-20T11:55:04;99223.75;;;5.95;100.00
39341;BME280;25059;52.132;21.062;2023-12-20T11:57:50;99214.88;;;5.75;100.00
39341;BME280;25059;52.132;21.062;2023-12-20T12:00:35;99223.94;;;5.89;100.00
39341;BME280;25059;52.132;21.062;2023-12-20T12:03:20;99217.22;;;5.83;100.00
39341;BME280;25059;52.132;21.062;2023-12-20T12:06:06;99212.63;;;5.66;100.00
39341;BME280;25059;52.132;21.062;2023-12-20T12:08:52;99204.06;;;5.63;100.00
39341;BME280;25059;52.132;21.062;2023-12-20T12:11:36;99204.47;;;5.52;100.00
39341;BME280;25059;52.132;21.062;2023-12-20T12:14:21;99203.22;;;5.62;100.00
39341;BME280;25059;52.132;21.062;2023-12-20T12:17:11;99217.09;;;5.63;100.00
39341;BME280;25059;52.132;21.062;2023-12-20T12:20:05;99200.94;;;5.53;100.00
39341;BME280;25059;52.132;21.062;2023-12-20T12:23:00;99214.25;;;5.45;100.00
39341;BME280;25059;52.132;21.062;2023-12-20T12:25:45;99196.31;;;5.38;100.00
39341;BME280;25059;52.132;21.062;2023-12-20T12:28:30;99201.22;;;5.69;100.00
39341;BME280;25059;52.132;21.062;2023-12-20T12:31:17;99202.06;;;5.23;100.00
39341;BME280;25059;52.132;21.062;2023-12-20T12:34:03;99214.97;;;5.26;100.00
39341;BME280;25059;52.132;21.062;2023-12-20T12:36:48;99191.94;;;5.38;100.00
39341;BME280;25059;52.132;21.062;2023-12-20T12:39:37;99191.78;;;5.43;100.00
39341;BME280;25059;52.132;21.062;2023-12-20T12:42:25;99199.13;;;5.32;100.00
39341;BME280;25059;52.132;21.062;2023-12-20T12:45:16;99188.59;;;5.35;100.00
39341;BME280;25059;52.132;21.062;2023-12-20T12:48:02;99205.53;;;5.23;100.00
39341;BME280;25059;52.132;21.062;2023-12-20T12:50:49;99187.50;;;5.17;100.00
39341;BME280;25059;52.132;21.062;2023-12-20T12:53:42;99187.22;;;5.25;100.00
39341;BME280;25059;52.132;21.062;2023-12-20T12:56:28;99176.13;;;5.19;100.00
39341;BME280;25059;52.132;21.062;2023-12-20T12:59:12;99183.16;;;5.17;100.00
39341;BME280;25059;52.132;21.062;2023-12-20T13:01:58;99185.53;;;5.24;100.00
39341;BME280;25059;52.132;21.062;2023-12-20T13:04:43;99186.31;;;5.26;100.00
39341;BME280;25059;52.132;21.062;2023-12-20T13:07:28;99178.09;;;5.13;100.00
39341;BME280;25059;52.132;21.062;2023-12-20T13:10:14;99198.56;;;5.24;100.00
39341;BME280;25059;52.132;21.062;2023-12-20T13:13:02;99180.38;;;5.22;100.00
39341;BME280;25059;52.132;21.062;2023-12-20T13:15:49;99178.22;;;5.10;100.00
39341;BME280;25059;52.132;21.062;2023-12-20T13:18:37;99187.72;;;5.11;100.00
39341;BME280;25059;52.132;21.062;2023-12-20T13:21:25;99187.72;;;5.11;100.00
39341;BME280;25059;52.132;21.062;2023-12-20T13:24:10;99195.16;;;5.22;100.00
39341;BME280;25059;52.132;21.062;2023-12-20T13:26:55;99161.72;;;5.09;100.00
39341;BME280;25059;52.132;21.062;2023-12-20T13:29:40;99186.53;;;5.19;100.00
39341;BME280;25059;52.132;21.062;2023-12-20T13:32:25;99195.16;;;5.22;100.00
39341;BME280;25059;52.132;21.062;2023-12-20T13:35:12;99165.81;;;5.16;100.00
39341;BME280;25059;52.132;21.062;2023-12-20T13:37:57;99167.81;;;5.33;100.00
39341;BME280;25059;52.132;21.062;2023-12-20T13:40:42;99186.00;;;5.35;100.00
39341;BME280;25059;52.132;21.062;2023-12-20T13:43:27;99171.66;;;5.23;100.00
39341;BME280;25059;52.132;21.062;2023-12-20T13:46:15;99187.84;;;5.31;100.00
39341;BME280;25059;52.132;21.062;2023-12-20T13:48:59;99169.03;;;5.23;100.00
39341;BME280;25059;52.132;21.062;2023-12-20T13:51:48;99173.28;;;5.26;100.00
39341;BME280;25059;52.132;21.062;2023-12-20T13:54:33;99155.41;;;5.16;100.00
39341;BME280;25059;52.132;21.062;2023-12-20T13:57:28;99175.97;;;5.24;100.00
39341;BME280;25059;52.132;21.062;2023-12-20T14:00:14;99168.13;;;5.24;100.00
39341;BME280;25059;52.132;21.062;2023-12-20T14:02:59;99162.31;;;4.93;100.00
39341;BME280;25059;52.132;21.062;2023-12-20T14:05:44;99174.81;;;5.08;100.00
39341;BME280;25059;52.132;21.062;2023-12-20T14:08:30;99166.66;;;5.17;100.00
39341;BME280;25059;52.132;21.062;2023-12-20T14:11:15;99171.31;;;5.09;100.00
39341;BME280;25059;52.132;21.062;2023-12-20T14:14:00;99173.69;;;5.15;100.00
39341;BME280;25059;52.132;21.062;2023-12-20T14:16:48;99171.03;;;5.16;100.00
39341;BME280;25059;52.132;21.062;2023-12-20T14:19:33;99175.09;;;5.24;100.00
39341;BME280;25059;52.132;21.062;2023-12-20T14:22:21;99153.66;;;4.92;100.00
39341;BME280;25059;52.132;21.062;2023-12-20T14:25:08;99184.38;;;5.07;100.00
39341;BME280;25059;52.132;21.062;2023-12-20T14:27:53;99187.25;;;5.00;100.00
39341;BME280;25059;52.132;21.062;2023-12-20T14:30:38;99192.31;;;5.04;100.00
39341;BME280;25059;52.132;21.062;2023-12-20T14:33:28;99192.03;;;4.87;100.00
39341;BME280;25059;52.132;21.062;2023-12-20T14:36:14;99189.81;;;5.01;100.00
39341;BME280;25059;52.132;21.062;2023-12-20T14:39:02;99200.28;;;5.00;100.00
39341;BME280;25059;52.132;21.062;2023-12-20T14:41:51;99187.31;;;4.98;100.00
39341;BME280;25059;52.132;21.062;2023-12-20T14:44:37;99164.94;;;4.93;100.00
39341;BME280;25059;52.132;21.062;2023-12-20T14:47:23;99183.06;;;4.96;100.00
39341;BME280;25059;52.132;21.062;2023-12-20T14:50:12;99177.84;;;4.96;100.00
39341;BME280;25059;52.132;21.062;2023-12-20T14:53:02;99191.72;;;4.96;100.00
39341;BME280;25059;52.132;21.062;2023-12-20T14:55:47;99185.59;;;4.97;100.00
39341;BME280;25059;52.132;21.062;2023-12-20T14:58:33;99171.47;;;4.79;100.00
39341;BME280;25059;52.132;21.062;2023-12-20T15:01:23;99182.19;;;4.95;100.00
39341;BME280;25059;52.132;21.062;2023-12-20T15:04:13;99179.75;;;4.91;100.00
39341;BME280;25059;52.132;21.062;2023-12-20T15:07:00;99178.31;;;4.82;100.00
39341;BME280;25059;52.132;21.062;2023-12-20T15:09:48;99182.63;;;4.83;100.00
39341;BME280;25059;52.132;21.062;2023-12-20T15:12:39;99190.22;;;4.89;100.00
39341;BME280;25059;52.132;21.062;2023-12-20T15:15:24;99175.56;;;4.86;100.00
39341;BME280;25059;52.132;21.062;2023-12-20T15:18:09;99167.59;;;4.91;100.00
39341;BME280;25059;52.132;21.062;2023-12-20T15:20:54;99169.34;;;4.91;100.00
39341;BME280;25059;52.132;21.062;2023-12-20T15:23:39;99172.00;;;4.89;100.00
39341;BME280;25059;52.132;21.062;2023-12-20T15:26:28;99169.41;;;4.89;100.00
39341;BME280;25059;52.132;21.062;2023-12-20T15:29:13;99169.22;;;4.94;100.00
39341;BME280;25059;52.132;21.062;2023-12-20T15:31:59;99168.53;;;4.89;100.00
39341;BME280;25059;52.132;21.062;2023-12-20T15:34:45;99149.03;;;4.75;100.00
39341;BME280;25059;52.132;21.062;2023-12-20T15:37:30;99160.91;;;4.84;100.00
39341;BME280;25059;52.132;21.062;2023-12-20T15:40:15;99156.47;;;4.86;100.00
39341;BME280;25059;52.132;21.062;2023-12-20T15:43:00;99157.38;;;4.85;100.00
39341;BME280;25059;52.132;21.062;2023-12-20T15:45:47;99147.03;;;4.83;100.00
39341;BME280;25059;52.132;21.062;2023-12-20T15:48:32;99148.16;;;4.76;100.00
39341;BME280;25059;52.132;21.062;2023-12-20T15:51:17;99154.09;;;4.80;100.00
39341;BME280;25059;52.132;21.062;2023-12-20T15:54:04;99142.25;;;4.71;100.00
39341;BME280;25059;52.132;21.062;2023-12-20T15:56:50;99145.28;;;4.84;100.00
39341;BME280;25059;52.132;21.062;2023-12-20T15:59:36;99135.13;;;4.76;100.00
39341;BME280;25059;52.132;21.062;2023-12-20T16:02:21;99134.06;;;4.82;100.00
39341;BME280;25059;52.132;21.062;2023-12-20T16:05:07;99138.16;;;4.89;100.00
39341;BME280;25059;52.132;21.062;2023-12-20T16:07:52;99124.22;;;4.90;100.00
39341;BME280;25059;52.132;21.062;2023-12-20T16:10:37;99113.28;;;4.80;100.00
39341;BME280;25059;52.132;21.062;2023-12-20T16:13:25;99115.78;;;4.83;100.00
39341;BME280;25059;52.132;21.062;2023-12-20T16:16:10;99105.41;;;4.82;100.00
39341;BME280;25059;52.132;21.062;2023-12-20T16:18:56;99105.25;;;4.86;100.00
39341;BME280;25059;52.132;21.062;2023-12-20T16:21:41;99127.50;;;4.95;100.00
39341;BME280;25059;52.132;21.062;2023-12-20T16:24:26;99119.75;;;4.94;100.00
39341;BME280;25059;52.132;21.062;2023-12-20T16:27:11;99116.34;;;4.92;100.00
39341;BME280;25059;52.132;21.062;2023-12-20T16:29:56;99116.03;;;5.01;100.00
39341;BME280;25059;52.132;21.062;2023-12-20T17:04:44;99132.72;;;4.95;100.00
39341;BME280;25059;52.132;21.062;2023-12-20T17:07:35;99120.56;;;4.96;100.00
39341;BME280;25059;52.132;21.062;2023-12-20T17:10:21;99122.19;;;4.98;100.00
39341;BME280;25059;52.132;21.062;2023-12-20T17:13:05;99090.66;;;4.82;100.00
39341;BME280;25059;52.132;21.062;2023-12-20T17:15:49;99073.09;;;4.88;100.00
39341;BME280;25059;52.132;21.062;2023-12-20T17:18:34;99102.22;;;4.99;100.00
39341;BME280;25059;52.132;21.062;2023-12-20T17:21:19;99097.13;;;4.96;100.00
39341;BME280;25059;52.132;21.062;2023-12-20T17:24:04;99066.59;;;4.76;100.00
39341;BME280;25059;52.132;21.062;2023-12-20T17:26:49;99050.41;;;4.68;100.00
39341;BME280;25059;52.132;21.062;2023-12-20T17:29:33;99098.19;;;4.90;100.00
39341;BME280;25059;52.132;21.062;2023-12-20T17:32:18;99060.88;;;4.66;100.00
39341;BME280;25059;52.132;21.062;2023-12-20T17:35:03;99058.59;;;4.57;100.00
39341;BME280;25059;52.132;21.062;2023-12-20T17:37:47;99063.47;;;4.66;100.00
39341;BME280;25059;52.132;21.062;2023-12-20T17:40:32;99054.66;;;4.70;100.00
39341;BME280;25059;52.132;21.062;2023-12-20T17:43:16;99054.25;;;4.81;100.00
39341;BME280;25059;52.132;21.062;2023-12-20T17:46:02;99033.09;;;4.67;100.00
39341;BME280;25059;52.132;21.062;2023-12-20T17:48:46;99060.38;;;4.80;100.00
39341;BME280;25059;52.132;21.062;2023-12-20T17:51:31;99038.28;;;4.67;100.00
39341;BME280;25059;52.132;21.062;2023-12-20T17:54:16;99053.47;;;4.79;100.00
39341;BME280;25059;52.132;21.062;2023-12-20T17:57:01;99058.50;;;4.83;100.00
39341;BME280;25059;52.132;21.062;2023-12-20T17:59:45;99050.91;;;4.77;100.00
39341;BME280;25059;52.132;21.062;2023-12-20T18:02:30;99063.38;;;4.93;100.00
39341;BME280;25059;52.132;21.062;2023-12-20T18:05:15;99058.28;;;4.90;100.00
39341;BME280;25059;52.132;21.062;2023-12-20T18:07:59;99045.09;;;4.94;100.00
39341;BME280;25059;52.132;21.062;2023-12-20T18:10:43;99034.94;;;4.86;100.00
39341;BME280;25059;52.132;21.062;2023-12-20T18:13:28;99048.59;;;4.93;100.00
39341;BME280;25059;52.132;21.062;2023-12-20T18:16:13;99001.97;;;4.64;100.00
39341;BME280;25059;52.132;21.062;2023-12-20T18:19:41;99048.59;;;4.93;100.00
39341;BME280;25059;52.132;21.062;2023-12-20T18:22:25;98981.75;;;4.47;100.00
39341;BME280;25059;52.132;21.062;2023-12-20T18:25:11;99034.00;;;4.89;100.00
39341;BME280;25059;52.132;21.062;2023-12-20T18:27:56;98999.19;;;4.68;100.00
39341;BME280;25059;52.132;21.062;2023-12-20T18:30:40;98997.94;;;4.55;100.00
39341;BME280;25059;52.132;21.062;2023-12-20T18:33:25;99031.50;;;4.63;100.00
39341;BME280;25059;52.132;21.062;2023-12-20T18:36:10;99037.88;;;4.54;100.00
39341;BME280;25059;52.132;21.062;2023-12-20T18:38:55;99032.09;;;4.46;100.00
39341;BME280;25059;52.132;21.062;2023-12-20T18:41:39;99014.44;;;4.31;100.00
39341;BME280;25059;52.132;21.062;2023-12-20T18:44:27;98998.19;;;4.24;100.00
39341;BME280;25059;52.132;21.062;2023-12-20T18:47:12;98989.06;;;4.12;100.00
39341;BME280;25059;52.132;21.062;2023-12-20T18:49:57;99021.44;;;4.29;100.00
39341;BME280;25059;52.132;21.062;2023-12-20T18:52:41;98999.25;;;4.18;100.00
39341;BME280;25059;52.132;21.062;2023-12-20T18:55:26;99025.56;;;4.34;100.00
39341;BME280;25059;52.132;21.062;2023-12-20T18:58:10;99019.22;;;4.18;100.00
39341;BME280;25059;52.132;21.062;2023-12-20T19:00:55;99000.03;;;4.20;100.00
39341;BME280;25059;52.132;21.062;2023-12-20T19:03:40;99015.69;;;4.44;100.00
39341;BME280;25059;52.132;21.062;2023-12-20T19:06:25;99007.47;;;4.31;100.00
39341;BME280;25059;52.132;21.062;2023-12-20T19:09:10;98991.44;;;4.18;100.00
39341;BME280;25059;52.132;21.062;2023-12-20T19:11:54;99001.53;;;4.03;100.00
39341;BME280;25059;52.132;21.062;2023-12-20T19:14:39;98988.41;;;3.81;100.00
39341;BME280;25059;52.132;21.062;2023-12-20T19:17:24;98983.97;;;3.58;100.00
39341;BME280;25059;52.132;21.062;2023-12-20T19:20:09;99040.50;;;3.78;100.00
39341;BME280;25059;52.132;21.062;2023-12-20T19:22:54;99062.03;;;3.81;100.00
39341;BME280;25059;52.132;21.062;2023-12-20T19:25:39;99001.81;;;3.42;100.00
39341;BME280;25059;52.132;21.062;2023-12-20T19:28:23;99061.16;;;3.54;100.00
39341;BME280;25059;52.132;21.062;2023-12-20T19:31:08;99213.47;;;2.97;100.00
39341;BME280;25059;52.132;21.062;2023-12-20T19:33:56;99102.38;;;2.46;100.00
39341;BME280;25059;52.132;21.062;2023-12-20T19:36:41;99116.44;;;2.37;100.00
39341;BME280;25059;52.132;21.062;2023-12-20T19:39:25;99107.38;;;2.19;100.00
39341;BME280;25059;52.132;21.062;2023-12-20T19:42:10;99114.19;;;2.23;100.00
39341;BME280;25059;52.132;21.062;2023-12-20T19:44:55;99103.63;;;1.97;100.00
39341;BME280;25059;52.132;21.062;2023-12-20T19:47:47;99101.94;;;1.96;100.00
39341;BME280;25059;52.132;21.062;2023-12-20T19:50:32;99114.41;;;2.16;100.00
39341;BME280;25059;52.132;21.062;2023-12-20T19:53:17;99130.56;;;2.59;100.00
39341;BME280;25059;52.132;21.062;2023-12-20T19:56:02;99070.91;;;4.27;100.00
39341;BME280;25059;52.132;21.062;2023-12-20T19:58:46;99067.44;;;7.48;100.00
39341;BME280;25059;52.132;21.062;2023-12-20T20:01:31;99058.16;;;8.98;100.00
39341;BME280;25059;52.132;21.062;2023-12-20T20:04:18;99072.88;;;4.94;100.00
39341;BME280;25059;52.132;21.062;2023-12-20T20:07:03;99073.06;;;3.62;100.00
39341;BME280;25059;52.132;21.062;2023-12-20T20:09:53;99084.56;;;3.81;100.00
39341;BME280;25059;52.132;21.062;2023-12-20T20:12:38;99102.53;;;3.61;100.00
39341;BME280;25059;52.132;21.062;2023-12-20T20:15:23;99092.13;;;3.88;100.00
39341;BME280;25059;52.132;21.062;2023-12-20T20:18:08;99091.53;;;3.52;100.00
39341;BME280;25059;52.132;21.062;2023-12-20T20:20:53;99096.59;;;3.57;100.00
39341;BME280;25059;52.132;21.062;2023-12-20T20:23:38;99081.94;;;3.54;100.00
39341;BME280;25059;52.132;21.062;2023-12-20T20:26:23;99073.72;;;3.40;100.00
39341;BME280;25059;52.132;21.062;2023-12-20T20:29:07;99087.84;;;3.60;100.00
39341;BME280;25059;52.132;21.062;2023-12-20T20:31:52;99091.28;;;3.32;100.00
39341;BME280;25059;52.132;21.062;2023-12-20T20:34:37;99089.28;;;3.70;100.00
39341;BME280;25059;52.132;21.062;2023-12-20T20:37:22;99052.94;;;3.40;100.00
39341;BME280;25059;52.132;21.062;2023-12-20T20:40:07;99081.56;;;3.67;100.00
39341;BME280;25059;52.132;21.062;2023-12-20T20:42:51;99064.38;;;3.63;100.00
39341;BME280;25059;52.132;21.062;2023-12-20T20:45:36;99060.97;;;3.61;100.00
39341;BME280;25059;52.132;21.062;2023-12-20T20:48:20;99063.47;;;3.08;100.00
39341;BME280;25059;52.132;21.062;2023-12-20T20:51:05;99088.13;;;3.50;100.00
39341;BME280;25059;52.132;21.062;2023-12-20T20:53:49;99064.44;;;3.33;100.00
39341;BME280;25059;52.132;21.062;2023-12-20T20:56:35;99057.94;;;3.18;100.00
39341;BME280;25059;52.132;21.062;2023-12-20T20:59:19;99058.00;;;3.17;100.00
39341;BME280;25059;52.132;21.062;2023-12-20T21:02:04;99091.47;;;3.26;100.00
39341;BME280;25059;52.132;21.062;2023-12-20T21:04:48;99094.94;;;3.27;100.00
39341;BME280;25059;52.132;21.062;2023-12-20T21:07:34;99092.84;;;3.38;100.00
39341;BME280;25059;52.132;21.062;2023-12-20T21:10:18;99075.31;;;3.16;100.00
39341;BME280;25059;52.132;21.062;2023-12-20T21:13:05;99093.16;;;3.56;100.00
39341;BME280;25059;52.132;21.062;2023-12-20T21:15:50;99078.75;;;3.46;100.00
39341;BME280;25059;52.132;21.062;2023-12-20T21:18:35;99077.47;;;3.60;100.00
39341;BME280;25059;52.132;21.062;2023-12-20T21:21:20;99075.56;;;3.65;100.00
39341;BME280;25059;52.132;21.062;2023-12-20T21:24:04;99071.03;;;3.71;100.00
39341;BME280;25059;52.132;21.062;2023-12-20T21:26:49;99080.06;;;3.60;100.00
39341;BME280;25059;52.132;21.062;2023-12-20T21:29:33;99065.59;;;3.51;100.00
39341;BME280;25059;52.132;21.062;2023-12-20T21:32:18;99094.41;;;3.71;100.00
39341;BME280;25059;52.132;21.062;2023-12-20T21:35:03;99077.88;;;3.46;100.00
39341;BME280;25059;52.132;21.062;2023-12-20T21:37:47;99067.25;;;3.26;100.00
39341;BME280;25059;52.132;21.062;2023-12-20T21:40:32;99079.41;;;3.53;100.00
39341;BME280;25059;52.132;21.062;2023-12-20T21:43:17;99078.69;;;3.76;100.00
39341;BME280;25059;52.132;21.062;2023-12-20T21:46:02;99094.72;;;3.88;100.00
39341;BME280;25059;52.132;21.062;2023-12-20T21:48:46;99101.44;;;3.96;100.00
39341;BME280;25059;52.132;21.062;2023-12-20T21:51:31;99084.97;;;3.69;100.00
39341;BME280;25059;52.132;21.062;2023-12-20T21:54:17;99084.66;;;3.51;100.00
39341;BME280;25059;52.132;21.062;2023-12-20T21:57:01;99051.81;;;3.49;100.00
39341;BME280;25059;52.132;21.062;2023-12-20T21:59:46;99105.50;;;4.04;100.00
39341;BME280;25059;52.132;21.062;2023-12-20T22:02:31;99054.63;;;3.69;100.00
39341;BME280;25059;52.132;21.062;2023-12-20T22:05:16;99097.19;;;3.93;100.00
39341;BME280;25059;52.132;21.062;2023-12-20T22:08:00;99097.59;;;4.07;100.00
39341;BME280;25059;52.132;21.062;2023-12-20T22:10:45;99083.03;;;4.02;100.00
39341;BME280;25059;52.132;21.062;2023-12-20T22:13:30;99077.38;;;3.89;100.00
39341;BME280;25059;52.132;21.062;2023-12-20T22:16:14;99085.88;;;3.94;100.00
39341;BME280;25059;52.132;21.062;2023-12-20T22:19:00;99113.63;;;4.20;100.00
39341;BME280;25059;52.132;21.062;2023-12-20T22:21:44;99117.84;;;4.24;100.00
39341;BME280;25059;52.132;21.062;2023-12-20T22:24:29;99080.97;;;4.11;100.00
39341;BME280;25059;52.132;21.062;2023-12-20T22:27:14;99091.28;;;4.14;100.00
39341;BME280;25059;52.132;21.062;2023-12-20T22:29:58;99113.38;;;4.28;100.00
39341;BME280;25059;52.132;21.062;2023-12-20T22:32:43;99091.94;;;4.21;100.00